Time;durP1;ratioP1;P1;durP2;ratioP2;P2;SDS_P1;SDS_P2;PMS_P1;PMS_P2;Temp;Humidity;BMP_temperature;BMP_pressure;BME280_temperature;BME280_humidity;BME280_pressure;Samples;Min_cycle;Max_cycle;Signal;HPM_P1;HPM_P2
2022/07/11 00:01:08;;;;;;;;;;;;;;;26.38;37.32;100289.75;5069972;28;1201;-45
2022/07/11 00:03:34;;;;;;;;;;;;;;;26.59;36.98;100298.09;5065994;28;976;-43
2022/07/11 00:05:59;;;;;;;;;;;;;;;26.49;37.38;100299.19;5070470;28;968;-43
2022/07/11 00:08:25;;;;;;;;;;;;;;;26.55;36.71;100308.41;5067031;28;1035;-43
2022/07/11 00:10:51;;;;;;;;;;;;;;;26.46;37.03;100306.88;5066097;28;992;-43
2022/07/11 00:13:16;;;;;;;;;;;;;;;26.64;37.07;100303.75;5067508;28;1241;-44
2022/07/11 00:15:41;;;;;;;;;;;;;;;26.81;36.83;100303.50;5065822;28;1016;-43
2022/07/11 00:18:06;;;;;;;;;;;;;;;26.80;36.09;100307.22;5073102;28;1909;-42
2022/07/11 00:20:32;;;;;;;;;;;;;;;26.83;35.91;100314.91;5074434;28;1007;-43
2022/07/11 00:22:57;;;;;;;;;;;;;;;27.00;36.21;100310.97;5068933;28;1162;-43
2022/07/11 00:25:22;;;;;;;;;;;;;;;26.91;36.28;100312.09;5063696;28;984;-43
2022/07/11 00:27:48;;;;;;;;;;;;;;;26.89;36.31;100309.59;5066413;28;2119;-42
2022/07/11 00:30:13;;;;;;;;;;;;;;;26.96;36.29;100304.25;5069482;28;1060;-43
2022/07/11 00:32:38;;;;;;;;;;;;;;;26.97;36.33;100305.09;5069375;28;1004;-43
2022/07/11 00:35:04;;;;;;;;;;;;;;;27.02;36.01;100297.28;5065396;28;989;-43
2022/07/11 00:37:29;;;;;;;;;;;;;;;26.97;36.20;100294.31;5075546;28;1961;-43
2022/07/11 00:39:54;;;;;;;;;;;;;;;26.97;36.21;100297.84;5077423;28;1064;-43
2022/07/11 00:42:20;;;;;;;;;;;;;;;26.98;36.28;100295.97;5076697;28;1237;-42
2022/07/11 00:44:45;;;;;;;;;;;;;;;27.00;36.43;100300.16;5069135;28;992;-43
2022/07/11 00:47:10;;;;;;;;;;;;;;;27.05;36.11;100301.47;5062391;28;995;-43
2022/07/11 00:49:36;;;;;;;;;;;;;;;27.06;35.95;100305.84;5070196;28;1087;-43
2022/07/11 00:52:01;;;;;;;;;;;;;;;27.05;36.17;100305.00;5073411;28;1075;-43
2022/07/11 00:54:26;;;;;;;;;;;;;;;27.17;36.21;100312.59;5060907;28;1046;-43
2022/07/11 00:56:52;;;;;;;;;;;;;;;27.21;35.91;100312.00;5070013;28;2187;-43
2022/07/11 00:59:17;;;;;;;;;;;;;;;27.23;36.04;100317.19;5060173;28;989;-43
2022/07/11 01:01:43;;;;;;;;;;;;;;;27.18;35.98;100309.69;5067578;28;1075;-43
2022/07/11 01:04:08;;;;;;;;;;;;;;;27.12;35.94;100314.00;5072736;28;1147;-43
2022/07/11 01:06:33;;;;;;;;;;;;;;;27.13;36.10;100310.28;5071543;28;1130;-43
2022/07/11 01:08:58;;;;;;;;;;;;;;;27.11;35.99;100311.50;5076077;28;1146;-43
2022/07/11 01:11:24;;;;;;;;;;;;;;;27.07;36.04;100312.91;5075587;28;1114;-43
2022/07/11 01:13:50;;;;;;;;;;;;;;;27.10;36.19;100316.06;5064258;28;1108;-42
2022/07/11 01:16:19;;;;;;;;;;;;;;;27.11;36.45;100327.72;5077774;28;1905;-42
2022/07/11 01:18:47;;;;;;;;;;;;;;;27.33;36.35;100328.50;5059585;28;873;-42
2022/07/11 01:21:25;;;;;;;;;;;;;;;27.26;36.04;100335.72;5072617;28;956;-43
2022/07/11 01:23:51;;;;;;;;;;;;;;;27.10;36.86;100331.41;5061605;28;949;-43
2022/07/11 01:26:17;;;;;;;;;;;;;;;27.07;36.62;100346.16;5071303;28;2015;-43
2022/07/11 01:28:42;;;;;;;;;;;;;;;27.12;37.02;100343.72;5069288;28;1249;-43
2022/07/11 01:31:07;;;;;;;;;;;;;;;27.06;36.64;100336.34;5075103;28;993;-43
2022/07/11 01:33:33;;;;;;;;;;;;;;;27.04;36.46;100337.59;5073176;28;1098;-42
2022/07/11 01:35:59;;;;;;;;;;;;;;;27.07;36.76;100340.75;5075473;28;1930;-42
2022/07/11 01:38:25;;;;;;;;;;;;;;;27.08;36.81;100344.25;5076127;28;1127;-43
2022/07/11 01:40:50;;;;;;;;;;;;;;;27.11;36.59;100349.31;5064736;28;1030;-43
2022/07/11 01:43:15;;;;;;;;;;;;;;;27.07;36.76;100350.69;5071656;28;921;-43
2022/07/11 01:45:41;;;;;;;;;;;;;;;27.01;37.36;100353.13;5067189;28;1134;-42
2022/07/11 01:48:06;;;;;;;;;;;;;;;27.03;37.30;100352.94;5071285;28;983;-43
2022/07/11 01:50:31;;;;;;;;;;;;;;;27.01;37.17;100354.97;5067899;28;1169;-43
2022/07/11 01:52:57;;;;;;;;;;;;;;;27.04;37.25;100346.53;5073373;28;988;-44
2022/07/11 01:55:22;;;;;;;;;;;;;;;27.07;37.25;100351.56;5064218;28;1063;-43
2022/07/11 01:57:47;;;;;;;;;;;;;;;27.17;37.25;100347.69;5061535;28;2040;-42
2022/07/11 02:00:13;;;;;;;;;;;;;;;27.12;37.05;100346.41;5066640;28;857;-43
2022/07/11 02:02:38;;;;;;;;;;;;;;;27.17;36.96;100351.22;5073258;28;1110;-43
2022/07/11 02:05:03;;;;;;;;;;;;;;;27.17;36.66;100351.22;5071703;28;1032;-42
2022/07/11 02:10:12;;;;;;;;;;;;;;;27.14;37.29;100359.72;5063422;28;934;-42
2022/07/11 02:12:38;;;;;;;;;;;;;;;27.31;36.95;100359.47;5066255;28;851;-43
2022/07/11 02:15:03;;;;;;;;;;;;;;;27.54;37.32;100359.25;5075850;28;1183;-43
2022/07/11 02:17:28;;;;;;;;;;;;;;;27.46;37.42;100357.50;5071009;28;1914;-43
2022/07/11 02:19:54;;;;;;;;;;;;;;;27.42;37.44;100361.63;5062010;28;1052;-42
2022/07/11 02:22:19;;;;;;;;;;;;;;;27.39;37.01;100364.72;5069428;28;1043;-43
2022/07/11 02:24:44;;;;;;;;;;;;;;;27.40;37.12;100369.09;5066104;28;1059;-43
2022/07/11 02:27:09;;;;;;;;;;;;;;;27.36;37.95;100357.81;5066561;28;2694;-42
2022/07/11 02:29:35;;;;;;;;;;;;;;;27.38;37.43;100361.19;5074560;28;1095;-42
2022/07/11 02:32:00;;;;;;;;;;;;;;;27.36;37.20;100363.22;5073036;28;1236;-42
2022/07/11 02:34:26;;;;;;;;;;;;;;;27.38;36.64;100369.28;5075617;28;1075;-42
2022/07/11 02:36:52;;;;;;;;;;;;;;;27.47;37.31;100378.09;5064112;28;1949;-42
2022/07/11 02:39:17;;;;;;;;;;;;;;;27.47;36.60;100383.50;5069468;28;969;-43
2022/07/11 02:41:42;;;;;;;;;;;;;;;27.41;37.54;100378.84;5065273;28;1060;-43
2022/07/11 02:44:08;;;;;;;;;;;;;;;27.44;38.00;100386.59;5065588;28;1016;-43
2022/07/11 02:46:33;;;;;;;;;;;;;;;27.49;37.82;100391.41;5062538;28;1076;-43
2022/07/11 02:48:58;;;;;;;;;;;;;;;27.49;37.31;100389.50;5056797;28;1151;-42
2022/07/11 02:51:23;;;;;;;;;;;;;;;27.43;38.21;100393.00;5064038;28;1013;-42
2022/07/11 02:53:49;;;;;;;;;;;;;;;27.53;37.89;100394.56;5070969;28;1015;-43
2022/07/11 02:56:14;;;;;;;;;;;;;;;27.59;38.45;100402.69;5067578;28;2564;-43
2022/07/11 02:58:39;;;;;;;;;;;;;;;27.55;37.58;100403.28;5062345;28;1051;-42
2022/07/11 03:01:05;;;;;;;;;;;;;;;27.34;37.65;100397.69;5058378;28;1078;-42
2022/07/11 03:03:30;;;;;;;;;;;;;;;27.25;37.57;100394.31;5072376;28;1024;-42
2022/07/11 03:05:55;;;;;;;;;;;;;;;27.25;37.89;100402.41;5064393;28;968;-42
2022/07/11 03:08:21;;;;;;;;;;;;;;;27.20;37.67;100404.84;5073583;28;1124;-42
2022/07/11 03:10:46;;;;;;;;;;;;;;;27.19;37.69;100413.97;5065224;28;1027;-42
2022/07/11 03:13:12;;;;;;;;;;;;;;;26.14;39.25;100412.19;5060365;28;1167;-43
2022/07/11 03:15:37;;;;;;;;;;;;;;;25.68;40.28;100413.94;5067450;28;976;-43
2022/07/11 03:18:02;;;;;;;;;;;;;;;24.83;41.69;100415.47;5069861;28;1918;-43
2022/07/11 03:20:28;;;;;;;;;;;;;;;24.83;41.95;100418.16;5068578;28;1072;-43
2022/07/11 03:22:53;;;;;;;;;;;;;;;24.66;41.56;100420.06;5071147;28;1142;-43
2022/07/11 03:25:18;;;;;;;;;;;;;;;24.57;42.08;100423.81;5071260;28;1051;-43
2022/07/11 03:27:44;;;;;;;;;;;;;;;24.37;42.40;100418.00;5062962;28;2516;-43
2022/07/11 03:30:10;;;;;;;;;;;;;;;24.28;42.55;100433.31;5076030;28;1110;-43
2022/07/11 03:32:35;;;;;;;;;;;;;;;24.13;42.84;100420.53;5069592;28;1129;-44
2022/07/11 03:37:44;;;;;;;;;;;;;;;24.15;42.68;100421.22;5068316;28;1906;-43
2022/07/11 03:40:10;;;;;;;;;;;;;;;23.76;43.21;100421.91;5068920;28;968;-43
2022/07/11 03:42:35;;;;;;;;;;;;;;;23.96;42.73;100420.56;5072839;28;1055;-43
2022/07/11 03:45:01;;;;;;;;;;;;;;;24.11;42.87;100429.78;5070557;28;1123;-42
2022/07/11 03:47:26;;;;;;;;;;;;;;;23.76;43.54;100429.97;5074346;28;1090;-44
2022/07/11 03:49:51;;;;;;;;;;;;;;;23.04;44.94;100438.38;5073513;28;885;-43
2022/07/11 03:52:16;;;;;;;;;;;;;;;23.39;44.09;100432.94;5075747;28;1056;-44
2022/07/11 03:54:43;;;;;;;;;;;;;;;22.98;44.87;100434.53;5062677;28;973;-44
2022/07/11 03:57:08;;;;;;;;;;;;;;;23.33;44.18;100441.66;5065044;28;1999;-43
2022/07/11 03:59:33;;;;;;;;;;;;;;;23.87;43.19;100435.03;5067203;28;1174;-43
2022/07/11 04:01:58;;;;;;;;;;;;;;;23.25;44.41;100434.44;5065194;28;1549;-43
2022/07/11 04:04:24;;;;;;;;;;;;;;;24.43;42.22;100442.34;5073344;28;1209;-44
2022/07/11 04:06:49;;;;;;;;;;;;;;;25.40;39.13;100436.03;5067117;28;1144;-44
2022/07/11 04:09:14;;;;;;;;;;;;;;;26.00;38.04;100438.94;5069139;28;857;-44
2022/07/11 04:11:40;;;;;;;;;;;;;;;26.33;37.09;100447.72;5064756;28;1016;-44
2022/07/11 04:14:05;;;;;;;;;;;;;;;26.56;37.08;100452.22;5063101;28;901;-43
2022/07/11 04:16:31;;;;;;;;;;;;;;;26.48;36.78;100456.69;5065957;28;1971;-44
2022/07/11 04:18:56;;;;;;;;;;;;;;;26.59;37.21;100458.06;5061016;28;1009;-42
2022/07/11 04:21:21;;;;;;;;;;;;;;;26.42;37.04;100452.03;5067389;28;960;-42
2022/07/11 04:23:47;;;;;;;;;;;;;;;26.47;36.81;100455.00;5069107;28;1008;-43
2022/07/11 04:26:12;;;;;;;;;;;;;;;26.55;36.94;100464.03;5065994;28;2580;-42
2022/07/11 04:28:37;;;;;;;;;;;;;;;26.94;36.18;100462.03;5069268;28;1035;-41
2022/07/11 04:31:03;;;;;;;;;;;;;;;26.80;36.62;100467.28;5072713;28;1031;-42
2022/07/11 04:33:28;;;;;;;;;;;;;;;26.85;36.50;100477.50;5070877;28;1127;-42
2022/07/11 04:35:54;;;;;;;;;;;;;;;26.74;37.14;100470.72;5073864;28;1028;-42
2022/07/11 04:38:21;;;;;;;;;;;;;;;26.99;36.46;100467.72;5061655;28;1964;-42
2022/07/11 04:40:47;;;;;;;;;;;;;;;26.96;36.17;100468.91;5075499;28;1020;-42
2022/07/11 04:43:12;;;;;;;;;;;;;;;27.02;37.02;100475.47;5068130;28;988;-42
2022/07/11 04:45:37;;;;;;;;;;;;;;;26.99;36.80;100473.94;5065395;28;1048;-42
2022/07/11 04:48:02;;;;;;;;;;;;;;;26.96;36.87;100481.59;5070713;28;1003;-43
2022/07/11 04:50:28;;;;;;;;;;;;;;;26.95;37.05;100480.75;5061055;28;1274;-42
2022/07/11 04:52:54;;;;;;;;;;;;;;;26.87;37.33;100475.44;5065309;28;2289;-42
2022/07/11 04:55:19;;;;;;;;;;;;;;;27.00;36.55;100477.47;5059781;28;1147;-42
2022/07/11 04:57:44;;;;;;;;;;;;;;;27.11;37.04;100481.59;5056009;28;1975;-42
2022/07/11 05:00:10;;;;;;;;;;;;;;;27.18;36.25;100487.91;5067344;28;1106;-42
2022/07/11 05:02:35;;;;;;;;;;;;;;;27.18;36.43;100489.75;5059727;28;1178;-42
2022/07/11 05:05:00;;;;;;;;;;;;;;;27.29;36.18;100494.69;5074313;28;1191;-40
2022/07/11 05:07:26;;;;;;;;;;;;;;;27.38;35.93;100496.22;5063750;28;989;-42
2022/07/11 05:09:51;;;;;;;;;;;;;;;27.31;35.82;100503.41;5063133;28;1084;-42
2022/07/11 05:12:17;;;;;;;;;;;;;;;27.41;35.54;100496.88;5068014;28;976;-42
2022/07/11 05:14:42;;;;;;;;;;;;;;;27.35;35.81;100495.75;5065387;28;906;-42
2022/07/11 05:17:08;;;;;;;;;;;;;;;27.25;36.68;100513.13;5070163;28;1972;-42
2022/07/11 05:19:33;;;;;;;;;;;;;;;27.15;36.36;100501.78;5075246;28;1042;-42
2022/07/11 05:21:58;;;;;;;;;;;;;;;27.14;36.38;100503.63;5073008;28;1285;-42
2022/07/11 05:24:25;;;;;;;;;;;;;;;27.29;36.20;100504.63;5076307;28;1005;-41
2022/07/11 05:26:50;;;;;;;;;;;;;;;27.29;36.42;100515.44;5073882;28;889;-42
2022/07/11 05:29:15;;;;;;;;;;;;;;;27.27;36.16;100507.53;5077871;28;1027;-42
2022/07/11 05:31:42;;;;;;;;;;;;;;;27.39;36.20;100510.56;5076065;28;1262;-42
2022/07/11 05:34:07;;;;;;;;;;;;;;;27.36;35.57;100511.78;5060582;28;1033;-43
2022/07/11 05:36:33;;;;;;;;;;;;;;;27.56;35.31;100505.75;5065362;28;1914;-43
2022/07/11 05:38:58;;;;;;;;;;;;;;;27.42;35.74;100503.94;5060510;28;1170;-41
2022/07/11 05:41:23;;;;;;;;;;;;;;;27.51;35.35;100521.69;5071237;28;1155;-41
2022/07/11 05:43:48;;;;;;;;;;;;;;;27.43;35.35;100511.84;5061184;28;1084;-42
2022/07/11 05:46:14;;;;;;;;;;;;;;;27.50;35.53;100510.06;5062325;28;1154;-42
2022/07/11 05:48:39;;;;;;;;;;;;;;;27.56;35.33;100513.84;5065115;28;1115;-42
2022/07/11 05:51:05;;;;;;;;;;;;;;;27.53;35.57;100518.84;5072633;28;1107;-42
2022/07/11 05:53:30;;;;;;;;;;;;;;;27.57;35.44;100517.41;5064093;28;1116;-42
2022/07/11 05:55:55;;;;;;;;;;;;;;;27.55;35.00;100522.16;5069413;28;984;-42
2022/07/11 05:58:21;;;;;;;;;;;;;;;27.62;34.86;100517.66;5063636;28;1967;-43
2022/07/11 06:00:46;;;;;;;;;;;;;;;27.70;34.49;100516.72;5065884;28;1039;-42
2022/07/11 06:03:12;;;;;;;;;;;;;;;27.72;35.02;100518.22;5064025;28;910;-41
2022/07/11 06:05:37;;;;;;;;;;;;;;;27.64;35.20;100518.31;5069463;28;980;-41
2022/07/11 06:10:46;;;;;;;;;;;;;;;27.58;34.56;100519.91;5065285;28;914;-38
2022/07/11 06:13:11;;;;;;;;;;;;;;;27.74;34.38;100524.25;5065930;28;950;-39
2022/07/11 06:15:37;;;;;;;;;;;;;;;27.65;34.56;100538.06;5063063;28;1050;-42
2022/07/11 06:18:02;;;;;;;;;;;;;;;27.74;34.67;100537.75;5072749;28;1898;-42
2022/07/11 06:20:27;;;;;;;;;;;;;;;27.80;34.79;100538.03;5064691;28;1016;-43
2022/07/11 06:22:53;;;;;;;;;;;;;;;27.85;34.45;100544.53;5063516;28;1123;-44
2022/07/11 06:25:18;;;;;;;;;;;;;;;28.01;34.08;100549.88;5068810;28;960;-43
2022/07/11 06:27:44;;;;;;;;;;;;;;;28.00;34.58;100551.75;5067640;28;1048;-42
2022/07/11 06:30:09;;;;;;;;;;;;;;;28.02;34.74;100549.69;5063069;28;1193;-43
2022/07/11 06:32:34;;;;;;;;;;;;;;;28.05;34.96;100552.00;5067449;28;1064;-42
2022/07/11 06:35:00;;;;;;;;;;;;;;;27.96;34.70;100550.47;5071686;28;1024;-42
2022/07/11 06:37:25;;;;;;;;;;;;;;;28.04;34.06;100550.34;5060866;28;1890;-41
2022/07/11 06:39:54;;;;;;;;;;;;;;;28.09;35.27;100553.25;5062659;28;897;-42
2022/07/11 06:42:19;;;;;;;;;;;;;;;28.16;34.66;100541.69;5067693;28;952;-39
2022/07/11 06:44:44;;;;;;;;;;;;;;;28.01;34.83;100553.41;5068883;28;1017;-42
2022/07/11 06:47:09;;;;;;;;;;;;;;;28.09;34.07;100552.44;5060039;28;1134;-40
2022/07/11 06:49:35;;;;;;;;;;;;;;;28.13;34.63;100542.91;5067513;28;1004;-40
2022/07/11 06:52:00;;;;;;;;;;;;;;;28.22;34.77;100552.56;5060245;28;1164;-40
2022/07/11 06:54:25;;;;;;;;;;;;;;;28.15;34.63;100550.81;5071163;28;1083;-42
2022/07/11 06:56:50;;;;;;;;;;;;;;;28.08;34.24;100553.47;5064442;28;1886;-42
2022/07/11 06:59:16;;;;;;;;;;;;;;;28.09;33.91;100555.16;5069638;28;1159;-43
2022/07/11 07:01:42;;;;;;;;;;;;;;;28.23;34.01;100558.78;5063159;28;1168;-41
2022/07/11 07:04:08;;;;;;;;;;;;;;;28.34;34.32;100568.28;5063876;28;1052;-45
2022/07/11 07:06:33;;;;;;;;;;;;;;;28.41;33.95;100554.81;5058574;28;1070;-39
2022/07/11 07:08:58;;;;;;;;;;;;;;;28.46;34.34;100557.78;5065357;28;1060;-38
2022/07/11 07:11:24;;;;;;;;;;;;;;;28.39;33.64;100565.00;5065250;28;1254;-38
2022/07/11 07:13:50;;;;;;;;;;;;;;;28.45;33.90;100569.59;5063378;28;1449;-41
2022/07/11 07:16:16;;;;;;;;;;;;;;;28.52;34.61;100570.50;5073079;28;1906;-37
2022/07/11 07:18:43;;;;;;;;;;;;;;;28.46;34.52;100569.41;5069710;28;1039;-37
2022/07/11 07:21:08;;;;;;;;;;;;;;;28.35;35.07;100565.38;5062569;28;1189;-37
2022/07/11 07:23:33;;;;;;;;;;;;;;;28.27;35.36;100567.34;5066497;28;996;-39
2022/07/11 07:25:59;;;;;;;;;;;;;;;28.25;35.47;100567.56;5063341;28;938;-37
2022/07/11 07:28:28;;;;;;;;;;;;;;;28.20;35.71;100570.00;5065457;28;1059;-38
2022/07/11 07:30:53;;;;;;;;;;;;;;;28.32;35.24;100570.31;5063716;28;1095;-41
2022/07/11 07:33:18;;;;;;;;;;;;;;;28.46;35.09;100576.72;5066605;28;1051;-39
2022/07/11 07:35:43;;;;;;;;;;;;;;;28.42;35.49;100573.56;5065583;28;1018;-38
2022/07/11 07:38:09;;;;;;;;;;;;;;;28.52;35.37;100580.47;5064444;28;1953;-38
2022/07/11 07:40:34;;;;;;;;;;;;;;;28.57;34.88;100578.88;5057751;28;1286;-39
2022/07/11 07:43:01;;;;;;;;;;;;;;;28.71;34.51;100568.97;5065224;28;1014;-36
2022/07/11 07:45:26;;;;;;;;;;;;;;;28.69;34.83;100573.75;5067400;28;1123;-37
2022/07/11 07:47:51;;;;;;;;;;;;;;;28.73;35.35;100571.47;5063946;28;1127;-37
2022/07/11 07:50:17;;;;;;;;;;;;;;;28.66;35.56;100579.53;5060905;28;1178;-38
2022/07/11 07:52:42;;;;;;;;;;;;;;;28.71;35.89;100574.38;5068791;28;988;-39
2022/07/11 07:55:08;;;;;;;;;;;;;;;28.71;35.82;100571.66;5060988;28;1091;-39
2022/07/11 07:57:34;;;;;;;;;;;;;;;28.63;35.92;100571.00;5068092;28;1971;-38
2022/07/11 08:02:43;;;;;;;;;;;;;;;28.64;36.26;100572.66;5063077;28;1072;-39
2022/07/11 08:05:09;;;;;;;;;;;;;;;28.52;35.31;100573.22;5069240;28;1068;-40
2022/07/11 08:07:34;;;;;;;;;;;;;;;28.41;33.76;100566.44;5062899;28;937;-39
2022/07/11 08:09:59;;;;;;;;;;;;;;;28.26;34.17;100576.50;5057628;28;1234;-40
2022/07/11 08:12:25;;;;;;;;;;;;;;;28.18;34.86;100566.66;5064877;28;949;-41
2022/07/11 08:14:51;;;;;;;;;;;;;;;28.22;34.55;100557.97;5062304;28;1044;-39
2022/07/11 08:17:17;;;;;;;;;;;;;;;28.29;35.26;100568.00;5071889;28;1979;-39
2022/07/11 08:19:42;;;;;;;;;;;;;;;28.23;34.74;100575.03;5061648;28;1032;-40
2022/07/11 08:22:07;;;;;;;;;;;;;;;28.15;34.52;100572.44;5067485;28;992;-38
2022/07/11 08:24:33;;;;;;;;;;;;;;;28.28;33.93;100571.75;5067469;28;985;-37
2022/07/11 08:26:58;;;;;;;;;;;;;;;28.08;35.28;100565.13;5061476;28;1213;-39
2022/07/11 08:29:23;;;;;;;;;;;;;;;28.23;34.90;100566.91;5064998;28;956;-41
2022/07/11 08:31:48;;;;;;;;;;;;;;;28.27;35.06;100561.94;5063589;28;1013;-37
2022/07/11 08:34:14;;;;;;;;;;;;;;;28.10;35.25;100567.63;5058599;28;997;-37
2022/07/11 08:36:40;;;;;;;;;;;;;;;28.10;35.33;100571.19;5066071;28;1897;-37
2022/07/11 08:39:05;;;;;;;;;;;;;;;28.04;35.76;100571.13;5061817;28;1332;-38
2022/07/11 08:41:31;;;;;;;;;;;;;;;28.00;35.29;100578.78;5063666;28;1131;-37
2022/07/11 08:43:56;;;;;;;;;;;;;;;28.08;35.13;100573.25;5072905;28;1090;-37
2022/07/11 08:46:21;;;;;;;;;;;;;;;28.01;35.95;100574.22;5071400;28;1241;-38
2022/07/11 08:48:47;;;;;;;;;;;;;;;28.02;35.65;100570.47;5074241;28;984;-38
2022/07/11 08:51:12;;;;;;;;;;;;;;;27.99;35.88;100577.09;5065489;28;1210;-37
2022/07/11 08:53:38;;;;;;;;;;;;;;;28.05;35.92;100575.47;5072836;28;1044;-37
2022/07/11 08:56:04;;;;;;;;;;;;;;;28.06;35.73;100580.69;5063321;28;1188;-38
2022/07/11 08:58:31;;;;;;;;;;;;;;;28.13;34.83;100571.84;5077495;28;1910;-38
2022/07/11 09:00:56;;;;;;;;;;;;;;;28.23;35.34;100564.19;5076387;28;1287;-38
2022/07/11 09:03:22;;;;;;;;;;;;;;;28.30;35.26;100567.81;5067201;28;1017;-37
2022/07/11 09:05:47;;;;;;;;;;;;;;;28.32;36.45;100562.19;5071543;28;980;-38
2022/07/11 09:08:12;;;;;;;;;;;;;;;28.31;36.80;100560.53;5068902;28;937;-37
2022/07/11 09:10:39;;;;;;;;;;;;;;;28.29;36.69;100566.16;5071776;28;992;-37
2022/07/11 09:13:04;;;;;;;;;;;;;;;28.37;37.37;100565.19;5068583;28;973;-37
2022/07/11 09:15:33;;;;;;;;;;;;;;;28.42;37.06;100567.28;5071147;28;858;-38
2022/07/11 09:17:58;;;;;;;;;;;;;;;28.31;37.62;100563.25;5064801;28;1901;-38
2022/07/11 09:20:23;;;;;;;;;;;;;;;28.33;37.44;100567.44;5074902;28;1035;-38
2022/07/11 09:25:41;;;;;;;;;;;;;;;28.42;35.53;100567.28;5065017;28;942;-41
2022/07/11 09:28:06;;;;;;;;;;;;;;;28.37;35.78;100576.00;5071953;28;830;-37
2022/07/11 09:30:32;;;;;;;;;;;;;;;28.15;39.92;100573.28;5067317;28;1175;-37
2022/07/11 09:33:05;;;;;;;;;;;;;;;28.17;41.07;100583.91;5067412;28;1059;-37
2022/07/11 09:35:35;;;;;;;;;;;;;;;28.03;41.06;100575.69;5067871;28;1316;-37
2022/07/11 09:38:10;;;;;;;;;;;;;;;28.08;40.62;100570.53;5075148;28;1890;-36
2022/07/11 09:40:35;;;;;;;;;;;;;;;27.19;36.28;100576.00;5061514;28;1135;-37
2022/07/11 09:43:01;;;;;;;;;;;;;;;27.14;34.84;100578.41;5075485;28;988;-36
2022/07/11 09:45:27;;;;;;;;;;;;;;;27.25;34.92;100569.00;5074710;28;1138;-37
2022/07/11 09:47:55;;;;;;;;;;;;;;;27.47;33.52;100575.28;5077350;28;1118;-36
2022/07/11 09:50:24;;;;;;;;;;;;;;;27.70;32.62;100578.88;5077219;28;1102;-37
2022/07/11 09:52:58;;;;;;;;;;;;;;;27.50;33.36;100566.81;5063364;28;898;-37
2022/07/11 09:55:24;;;;;;;;;;;;;;;27.74;33.19;100564.78;5072381;28;1012;-37
2022/07/11 09:57:49;;;;;;;;;;;;;;;27.47;33.05;100569.88;5074737;28;1957;-37
2022/07/11 10:00:15;;;;;;;;;;;;;;;27.90;33.06;100587.22;5077219;28;1079;-39
2022/07/11 10:02:40;;;;;;;;;;;;;;;28.28;32.53;100577.97;5076517;28;1240;-39
2022/07/11 10:05:06;;;;;;;;;;;;;;;28.50;32.44;100572.56;5064459;28;894;-37
2022/07/11 10:07:31;;;;;;;;;;;;;;;28.44;32.91;100568.78;5071972;28;1450;-39
2022/07/11 10:09:57;;;;;;;;;;;;;;;28.43;32.94;100579.78;5066753;28;1040;-38
2022/07/11 10:12:23;;;;;;;;;;;;;;;28.47;33.24;100571.09;5068037;28;1183;-36
2022/07/11 10:14:48;;;;;;;;;;;;;;;28.65;32.81;100568.91;5062783;28;1001;-38
2022/07/11 10:17:16;;;;;;;;;;;;;;;28.68;32.88;100557.69;5067376;28;1892;-36
2022/07/11 10:19:50;;;;;;;;;;;;;;;28.42;32.31;100557.31;5071717;28;992;-36
2022/07/11 10:22:15;;;;;;;;;;;;;;;28.34;32.90;100561.00;5060707;28;997;-37
2022/07/11 10:25:01;;;;;;;;;;;;;;;28.34;33.20;100554.75;5069345;28;992;-37
2022/07/11 10:27:55;;;;;;;;;;;;;;;28.46;33.40;100563.19;5024711;28;1251;-36
2022/07/11 10:30:39;;;;;;;;;;;;;;;28.39;33.24;100562.28;5059567;28;1220;-37
2022/07/11 10:33:08;;;;;;;;;;;;;;;28.46;33.00;100577.53;5058190;28;928;-37
2022/07/11 10:35:34;;;;;;;;;;;;;;;28.56;32.90;100574.47;5064700;28;977;-38
2022/07/11 10:37:59;;;;;;;;;;;;;;;28.65;32.44;100574.31;5058436;28;1952;-39
2022/07/11 10:40:39;;;;;;;;;;;;;;;28.67;32.51;100562.28;5070572;28;1313;-38
2022/07/11 10:43:05;;;;;;;;;;;;;;;28.72;32.47;100556.28;5067049;28;1114;-38
2022/07/11 10:45:30;;;;;;;;;;;;;;;28.11;30.17;100578.25;5065756;28;1052;-38
2022/07/11 10:47:55;;;;;;;;;;;;;;;27.58;29.88;100570.41;5067878;28;1412;-37
2022/07/11 10:50:24;;;;;;;;;;;;;;;27.36;29.75;100563.09;5056330;28;1465;-38
2022/07/11 10:52:49;;;;;;;;;;;;;;;27.28;29.68;100563.22;5058787;28;1395;-37
2022/07/11 10:55:17;;;;;;;;;;;;;;;26.73;30.33;100558.91;5065022;28;940;-37
2022/07/11 10:57:52;;;;;;;;;;;;;;;27.42;31.10;100552.56;5062710;28;1890;-38
2022/07/11 11:00:21;;;;;;;;;;;;;;;27.85;31.18;100581.53;5069325;28;988;-36
2022/07/11 11:03:12;;;;;;;;;;;;;;;28.44;31.23;100570.66;5064233;28;1147;-37
2022/07/11 11:05:55;;;;;;;;;;;;;;;28.63;30.57;100565.59;5064840;28;1679;-38
2022/07/11 11:08:36;;;;;;;;;;;;;;;28.57;29.67;100554.53;5059587;28;1020;-38
2022/07/11 11:11:02;;;;;;;;;;;;;;;28.58;30.79;100558.03;5063535;28;1262;-38
2022/07/11 11:13:28;;;;;;;;;;;;;;;28.46;30.94;100569.41;5064739;28;1275;-37
2022/07/11 11:15:54;;;;;;;;;;;;;;;28.55;31.14;100580.94;5068085;28;934;-37
2022/07/11 11:18:25;;;;;;;;;;;;;;;28.55;31.55;100563.84;5069774;28;1997;-40
2022/07/11 11:21:02;;;;;;;;;;;;;;;28.54;30.65;100554.91;5072315;28;1158;-38
2022/07/11 11:23:30;;;;;;;;;;;;;;;28.51;31.17;100568.00;5057009;28;1254;-37
2022/07/11 11:26:08;;;;;;;;;;;;;;;28.51;31.27;100562.59;5066360;28;996;-36
2022/07/11 11:28:34;;;;;;;;;;;;;;;28.46;32.35;100572.13;5062449;28;1199;-37
2022/07/11 11:31:00;;;;;;;;;;;;;;;28.42;32.43;100570.00;5067239;28;1214;-38
2022/07/11 11:33:26;;;;;;;;;;;;;;;28.56;31.67;100579.06;5058925;28;1040;-39
2022/07/11 11:35:59;;;;;;;;;;;;;;;28.62;31.08;100569.31;5063149;28;1077;-39
2022/07/11 11:38:24;;;;;;;;;;;;;;;28.80;30.89;100563.38;5068309;28;1917;-39
2022/07/11 11:40:50;;;;;;;;;;;;;;;28.72;31.30;100561.69;5056551;28;874;-38
2022/07/11 11:43:19;;;;;;;;;;;;;;;28.74;31.48;100562.31;5069160;28;1135;-38
2022/07/11 11:45:50;;;;;;;;;;;;;;;28.78;31.93;100570.88;5059509;28;1000;-37
2022/07/11 11:48:26;;;;;;;;;;;;;;;27.87;29.18;100563.25;5061254;28;1251;-38
2022/07/11 11:50:51;;;;;;;;;;;;;;;27.95;30.45;100560.44;5073849;28;977;-38
2022/07/11 11:53:16;;;;;;;;;;;;;;;28.26;31.75;100569.22;5058546;28;940;-41
2022/07/11 11:55:42;;;;;;;;;;;;;;;28.24;31.69;100568.59;5061003;28;1328;-38
2022/07/11 11:58:07;;;;;;;;;;;;;;;28.60;31.81;100585.75;5067373;28;1906;-37
2022/07/11 12:00:32;;;;;;;;;;;;;;;28.72;31.41;100577.91;5065292;28;1236;-36
2022/07/11 12:02:57;;;;;;;;;;;;;;;28.96;30.63;100576.59;5060017;28;984;-37
2022/07/11 12:05:23;;;;;;;;;;;;;;;28.90;30.53;100580.09;5064393;28;859;-37
2022/07/11 12:07:48;;;;;;;;;;;;;;;28.94;30.36;100592.22;5068406;28;1318;-36
2022/07/11 12:10:13;;;;;;;;;;;;;;;28.79;30.18;100575.25;5056500;28;1080;-38
2022/07/11 12:12:48;;;;;;;;;;;;;;;28.56;29.95;100579.88;5062365;28;1273;-36
2022/07/11 12:15:26;;;;;;;;;;;;;;;28.52;30.37;100581.31;5062337;28;1181;-37
2022/07/11 12:17:52;;;;;;;;;;;;;;;28.54;30.96;100584.69;5059308;28;1906;-36
2022/07/11 12:20:36;;;;;;;;;;;;;;;28.60;30.87;100583.03;5061732;28;989;-36
2022/07/11 12:23:03;;;;;;;;;;;;;;;28.44;31.31;100570.66;5062174;28;1005;-38
2022/07/11 12:25:28;;;;;;;;;;;;;;;27.90;30.12;100575.53;5064416;28;984;-38
2022/07/11 12:27:59;;;;;;;;;;;;;;;28.21;30.58;100586.03;5063364;28;1179;-36
2022/07/11 12:30:24;;;;;;;;;;;;;;;28.24;31.76;100576.72;5067360;28;956;-39
2022/07/11 12:33:05;;;;;;;;;;;;;;;28.32;32.14;100568.47;5063826;28;1040;-40
2022/07/11 12:35:31;;;;;;;;;;;;;;;28.33;32.32;100582.81;5060198;28;1040;-39
2022/07/11 12:37:56;;;;;;;;;;;;;;;28.34;32.80;100579.09;5065963;28;1971;-39
2022/07/11 12:40:21;;;;;;;;;;;;;;;28.41;32.52;100574.56;5070517;28;1028;-40
2022/07/11 12:42:47;;;;;;;;;;;;;;;28.29;32.92;100576.13;5065840;28;1009;-40
2022/07/11 12:45:13;;;;;;;;;;;;;;;28.06;31.98;100567.19;5068857;28;1249;-41
2022/07/11 12:47:39;;;;;;;;;;;;;;;28.17;33.33;100567.69;5063739;28;1218;-39
2022/07/11 12:50:24;;;;;;;;;;;;;;;28.19;33.32;100571.91;5063124;28;1068;-39
2022/07/11 12:52:50;;;;;;;;;;;;;;;28.32;32.42;100559.50;5059750;28;1781;-39
2022/07/11 12:55:34;;;;;;;;;;;;;;;28.36;32.86;100560.81;5061676;28;1045;-39
2022/07/11 12:58:02;;;;;;;;;;;;;;;28.32;33.02;100554.94;5073748;28;1905;-40
2022/07/11 13:00:27;;;;;;;;;;;;;;;28.31;33.26;100555.13;5069820;28;1199;-40